sensor_id;sensor_type;location;lat;lon;timestamp;P1;durP1;ratioP1;P2;durP2;ratioP2
25481;SDS011;13395;50.752;4.268;2023-03-20T00:00:04;13.00;;;9.15;;
25481;SDS011;13395;50.752;4.268;2023-03-20T00:02:34;17.60;;;9.20;;
25481;SDS011;13395;50.752;4.268;2023-03-20T00:05:08;14.45;;;10.15;;
25481;SDS011;13395;50.752;4.268;2023-03-20T00:07:43;18.63;;;10.30;;
25481;SDS011;13395;50.752;4.268;2023-03-20T00:10:09;17.85;;;9.20;;
25481;SDS011;13395;50.752;4.268;2023-03-20T00:12:35;15.73;;;9.50;;
25481;SDS011;13395;50.752;4.268;2023-03-20T00:15:02;17.42;;;10.02;;
25481;SDS011;13395;50.752;4.268;2023-03-20T00:17:30;17.02;;;9.60;;
25481;SDS011;13395;50.752;4.268;2023-03-20T00:19:56;17.70;;;9.85;;
25481;SDS011;13395;50.752;4.268;2023-03-20T00:22:22;19.27;;;10.35;;
25481;SDS011;13395;50.752;4.268;2023-03-20T00:24:47;14.75;;;8.70;;
25481;SDS011;13395;50.752;4.268;2023-03-20T00:27:14;14.73;;;9.65;;
25481;SDS011;13395;50.752;4.268;2023-03-20T00:29:40;25.08;;;9.35;;
25481;SDS011;13395;50.752;4.268;2023-03-20T00:32:13;16.58;;;9.68;;
25481;SDS011;13395;50.752;4.268;2023-03-20T00:34:39;17.90;;;9.43;;
25481;SDS011;13395;50.752;4.268;2023-03-20T00:37:05;17.48;;;9.43;;
25481;SDS011;13395;50.752;4.268;2023-03-20T00:39:31;21.10;;;9.43;;
25481;SDS011;13395;50.752;4.268;2023-03-20T00:42:00;16.63;;;8.80;;
25481;SDS011;13395;50.752;4.268;2023-03-20T00:44:34;21.35;;;9.27;;
25481;SDS011;13395;50.752;4.268;2023-03-20T00:47:12;18.67;;;9.55;;
25481;SDS011;13395;50.752;4.268;2023-03-20T00:49:42;25.08;;;10.48;;
25481;SDS011;13395;50.752;4.268;2023-03-20T00:52:09;17.83;;;9.02;;
25481;SDS011;13395;50.752;4.268;2023-03-20T00:54:36;19.67;;;10.05;;
25481;SDS011;13395;50.752;4.268;2023-03-20T00:57:06;19.58;;;9.30;;
25481;SDS011;13395;50.752;4.268;2023-03-20T00:59:41;23.50;;;10.45;;
25481;SDS011;13395;50.752;4.268;2023-03-20T01:02:15;25.45;;;10.18;;
25481;SDS011;13395;50.752;4.268;2023-03-20T01:04:41;25.58;;;10.20;;
25481;SDS011;13395;50.752;4.268;2023-03-20T01:07:09;19.33;;;9.93;;
25481;SDS011;13395;50.752;4.268;2023-03-20T01:09:37;22.00;;;11.45;;
25481;SDS011;13395;50.752;4.268;2023-03-20T01:12:03;26.75;;;10.93;;
25481;SDS011;13395;50.752;4.268;2023-03-20T01:14:30;24.08;;;12.18;;
25481;SDS011;13395;50.752;4.268;2023-03-20T01:16:56;29.48;;;11.88;;
25481;SDS011;13395;50.752;4.268;2023-03-20T01:19:21;31.73;;;12.85;;
25481;SDS011;13395;50.752;4.268;2023-03-20T01:21:47;31.98;;;13.05;;
25481;SDS011;13395;50.752;4.268;2023-03-20T01:24:12;27.02;;;12.93;;
25481;SDS011;13395;50.752;4.268;2023-03-20T01:26:39;28.70;;;13.25;;
25481;SDS011;13395;50.752;4.268;2023-03-20T01:29:19;26.90;;;12.75;;
25481;SDS011;13395;50.752;4.268;2023-03-20T01:31:46;30.73;;;13.52;;
25481;SDS011;13395;50.752;4.268;2023-03-20T01:34:12;29.38;;;13.15;;
25481;SDS011;13395;50.752;4.268;2023-03-20T01:36:40;30.35;;;14.30;;
25481;SDS011;13395;50.752;4.268;2023-03-20T01:39:09;30.42;;;15.20;;
25481;SDS011;13395;50.752;4.268;2023-03-20T01:41:35;28.15;;;13.85;;
25481;SDS011;13395;50.752;4.268;2023-03-20T01:44:08;27.63;;;14.25;;
25481;SDS011;13395;50.752;4.268;2023-03-20T01:52:03;27.92;;;15.27;;
25481;SDS011;13395;50.752;4.268;2023-03-20T01:54:29;31.60;;;16.10;;
25481;SDS011;13395;50.752;4.268;2023-03-20T01:57:14;30.48;;;15.48;;
25481;SDS011;13395;50.752;4.268;2023-03-20T01:59:45;29.42;;;15.20;;
25481;SDS011;13395;50.752;4.268;2023-03-20T02:02:22;32.95;;;15.57;;
25481;SDS011;13395;50.752;4.268;2023-03-20T02:04:53;26.50;;;15.65;;
25481;SDS011;13395;50.752;4.268;2023-03-20T02:07:24;34.15;;;15.18;;
25481;SDS011;13395;50.752;4.268;2023-03-20T02:09:49;42.70;;;16.50;;
25481;SDS011;13395;50.752;4.268;2023-03-20T02:12:16;32.40;;;13.40;;
25481;SDS011;13395;50.752;4.268;2023-03-20T02:14:44;29.33;;;14.55;;
25481;SDS011;13395;50.752;4.268;2023-03-20T02:17:12;42.38;;;15.00;;
25481;SDS011;13395;50.752;4.268;2023-03-20T02:28:46;31.77;;;14.20;;
25481;SDS011;13395;50.752;4.268;2023-03-20T02:41:59;29.42;;;15.40;;
25481;SDS011;13395;50.752;4.268;2023-03-20T02:47:27;35.45;;;15.27;;
25481;SDS011;13395;50.752;4.268;2023-03-20T02:50:26;35.65;;;14.63;;
25481;SDS011;13395;50.752;4.268;2023-03-20T03:01:30;37.60;;;16.13;;
25481;SDS011;13395;50.752;4.268;2023-03-20T03:04:17;32.78;;;14.32;;
25481;SDS011;13395;50.752;4.268;2023-03-20T03:06:49;30.08;;;14.98;;
25481;SDS011;13395;50.752;4.268;2023-03-20T03:09:21;35.47;;;15.07;;
25481;SDS011;13395;50.752;4.268;2023-03-20T03:11:54;32.20;;;15.55;;
25481;SDS011;13395;50.752;4.268;2023-03-20T03:14:31;28.88;;;14.90;;
25481;SDS011;13395;50.752;4.268;2023-03-20T03:17:02;33.40;;;14.90;;
25481;SDS011;13395;50.752;4.268;2023-03-20T03:19:30;31.70;;;14.85;;
25481;SDS011;13395;50.752;4.268;2023-03-20T03:38:36;35.22;;;14.68;;
25481;SDS011;13395;50.752;4.268;2023-03-20T04:33:52;32.22;;;10.57;;
25481;SDS011;13395;50.752;4.268;2023-03-20T04:36:18;24.13;;;9.63;;
25481;SDS011;13395;50.752;4.268;2023-03-20T04:38:43;20.73;;;8.85;;
25481;SDS011;13395;50.752;4.268;2023-03-20T04:41:09;21.02;;;9.77;;
25481;SDS011;13395;50.752;4.268;2023-03-20T04:43:35;23.38;;;10.20;;
25481;SDS011;13395;50.752;4.268;2023-03-20T04:46:00;26.58;;;9.82;;
25481;SDS011;13395;50.752;4.268;2023-03-20T04:51:01;21.13;;;7.88;;
25481;SDS011;13395;50.752;4.268;2023-03-20T04:53:27;27.25;;;9.73;;
25481;SDS011;13395;50.752;4.268;2023-03-20T04:55:53;25.50;;;8.82;;
25481;SDS011;13395;50.752;4.268;2023-03-20T05:00:54;30.45;;;9.88;;
25481;SDS011;13395;50.752;4.268;2023-03-20T05:03:19;28.15;;;8.48;;
25481;SDS011;13395;50.752;4.268;2023-03-20T05:05:45;28.27;;;8.98;;
25481;SDS011;13395;50.752;4.268;2023-03-20T05:23:42;23.15;;;8.30;;
25481;SDS011;13395;50.752;4.268;2023-03-20T05:26:08;21.27;;;6.85;;
25481;SDS011;13395;50.752;4.268;2023-03-20T05:28:33;20.58;;;6.63;;
25481;SDS011;13395;50.752;4.268;2023-03-20T05:30:59;20.92;;;7.90;;
25481;SDS011;13395;50.752;4.268;2023-03-20T05:33:25;23.27;;;8.32;;
25481;SDS011;13395;50.752;4.268;2023-03-20T05:35:50;21.73;;;7.57;;
25481;SDS011;13395;50.752;4.268;2023-03-20T05:38:16;25.13;;;6.30;;
25481;SDS011;13395;50.752;4.268;2023-03-20T05:40:41;20.65;;;7.15;;
25481;SDS011;13395;50.752;4.268;2023-03-20T05:43:07;20.10;;;6.65;;
25481;SDS011;13395;50.752;4.268;2023-03-20T05:45:32;21.73;;;6.53;;
25481;SDS011;13395;50.752;4.268;2023-03-20T05:47:58;21.35;;;7.35;;
25481;SDS011;13395;50.752;4.268;2023-03-20T05:50:24;23.42;;;6.68;;
25481;SDS011;13395;50.752;4.268;2023-03-20T05:52:50;26.38;;;6.72;;
25481;SDS011;13395;50.752;4.268;2023-03-20T05:55:15;21.60;;;6.20;;
25481;SDS011;13395;50.752;4.268;2023-03-20T05:57:41;19.33;;;5.78;;
25481;SDS011;13395;50.752;4.268;2023-03-20T06:00:07;21.60;;;6.68;;
25481;SDS011;13395;50.752;4.268;2023-03-20T06:02:34;26.77;;;5.60;;
25481;SDS011;13395;50.752;4.268;2023-03-20T06:05:03;17.20;;;6.10;;
25481;SDS011;13395;50.752;4.268;2023-03-20T06:07:29;24.75;;;6.35;;
25481;SDS011;13395;50.752;4.268;2023-03-20T06:09:55;16.95;;;6.55;;
25481;SDS011;13395;50.752;4.268;2023-03-20T06:12:20;23.48;;;6.25;;
25481;SDS011;13395;50.752;4.268;2023-03-20T06:14:46;25.20;;;5.88;;
25481;SDS011;13395;50.752;4.268;2023-03-20T06:17:12;19.60;;;6.60;;
25481;SDS011;13395;50.752;4.268;2023-03-20T06:19:38;16.20;;;6.50;;
25481;SDS011;13395;50.752;4.268;2023-03-20T06:22:03;22.80;;;6.20;;
25481;SDS011;13395;50.752;4.268;2023-03-20T06:24:29;19.77;;;6.07;;
25481;SDS011;13395;50.752;4.268;2023-03-20T06:26:55;17.80;;;5.93;;
25481;SDS011;13395;50.752;4.268;2023-03-20T06:29:21;20.83;;;6.30;;
25481;SDS011;13395;50.752;4.268;2023-03-20T06:34:45;18.48;;;7.68;;
25481;SDS011;13395;50.752;4.268;2023-03-20T06:37:10;23.60;;;6.75;;
25481;SDS011;13395;50.752;4.268;2023-03-20T06:39:36;18.40;;;6.45;;
25481;SDS011;13395;50.752;4.268;2023-03-20T06:42:02;17.30;;;6.63;;
25481;SDS011;13395;50.752;4.268;2023-03-20T06:44:27;19.60;;;6.00;;
25481;SDS011;13395;50.752;4.268;2023-03-20T06:46:53;23.48;;;6.88;;
25481;SDS011;13395;50.752;4.268;2023-03-20T06:49:18;25.25;;;7.60;;
25481;SDS011;13395;50.752;4.268;2023-03-20T06:51:44;13.85;;;6.30;;
25481;SDS011;13395;50.752;4.268;2023-03-20T06:54:11;17.17;;;5.97;;
25481;SDS011;13395;50.752;4.268;2023-03-20T06:56:37;23.17;;;6.65;;
25481;SDS011;13395;50.752;4.268;2023-03-20T06:59:03;24.10;;;7.75;;
25481;SDS011;13395;50.752;4.268;2023-03-20T07:01:28;22.02;;;6.32;;
25481;SDS011;13395;50.752;4.268;2023-03-20T07:03:54;20.15;;;6.25;;
25481;SDS011;13395;50.752;4.268;2023-03-20T07:06:19;15.23;;;5.53;;
25481;SDS011;13395;50.752;4.268;2023-03-20T07:08:45;13.88;;;5.43;;
25481;SDS011;13395;50.752;4.268;2023-03-20T07:11:11;17.55;;;5.32;;
25481;SDS011;13395;50.752;4.268;2023-03-20T07:13:37;12.30;;;5.95;;
25481;SDS011;13395;50.752;4.268;2023-03-20T07:16:03;15.55;;;5.35;;
25481;SDS011;13395;50.752;4.268;2023-03-20T07:18:29;10.90;;;4.22;;
25481;SDS011;13395;50.752;4.268;2023-03-20T07:20:57;17.55;;;5.20;;
25481;SDS011;13395;50.752;4.268;2023-03-20T07:23:26;15.68;;;4.90;;
25481;SDS011;13395;50.752;4.268;2023-03-20T07:25:52;16.50;;;5.28;;
25481;SDS011;13395;50.752;4.268;2023-03-20T07:28:18;21.38;;;5.88;;
25481;SDS011;13395;50.752;4.268;2023-03-20T07:30:43;19.70;;;4.70;;
25481;SDS011;13395;50.752;4.268;2023-03-20T07:33:09;12.18;;;5.30;;
25481;SDS011;13395;50.752;4.268;2023-03-20T07:35:35;15.57;;;4.55;;
25481;SDS011;13395;50.752;4.268;2023-03-20T07:38:01;14.90;;;5.55;;
25481;SDS011;13395;50.752;4.268;2023-03-20T07:40:26;12.48;;;4.85;;
25481;SDS011;13395;50.752;4.268;2023-03-20T07:42:52;16.38;;;5.18;;
25481;SDS011;13395;50.752;4.268;2023-03-20T07:45:18;11.95;;;5.18;;
25481;SDS011;13395;50.752;4.268;2023-03-20T07:47:44;16.10;;;5.63;;
25481;SDS011;13395;50.752;4.268;2023-03-20T07:50:10;18.13;;;3.42;;
25481;SDS011;13395;50.752;4.268;2023-03-20T07:52:36;10.82;;;4.80;;
25481;SDS011;13395;50.752;4.268;2023-03-20T07:55:02;13.27;;;4.78;;
25481;SDS011;13395;50.752;4.268;2023-03-20T07:57:27;16.42;;;6.40;;
25481;SDS011;13395;50.752;4.268;2023-03-20T07:59:53;13.95;;;4.20;;
25481;SDS011;13395;50.752;4.268;2023-03-20T08:02:19;11.68;;;3.95;;
25481;SDS011;13395;50.752;4.268;2023-03-20T08:04:45;10.38;;;4.80;;
25481;SDS011;13395;50.752;4.268;2023-03-20T08:07:11;21.95;;;5.68;;
25481;SDS011;13395;50.752;4.268;2023-03-20T08:09:37;11.45;;;5.13;;
25481;SDS011;13395;50.752;4.268;2023-03-20T08:12:03;13.15;;;5.32;;
25481;SDS011;13395;50.752;4.268;2023-03-20T08:14:29;13.82;;;4.85;;
25481;SDS011;13395;50.752;4.268;2023-03-20T08:16:56;22.13;;;5.50;;
25481;SDS011;13395;50.752;4.268;2023-03-20T08:19:21;14.35;;;5.30;;
25481;SDS011;13395;50.752;4.268;2023-03-20T08:21:47;19.58;;;6.32;;
25481;SDS011;13395;50.752;4.268;2023-03-20T08:24:14;21.52;;;6.10;;
25481;SDS011;13395;50.752;4.268;2023-03-20T08:26:39;14.35;;;5.68;;
25481;SDS011;13395;50.752;4.268;2023-03-20T08:29:05;12.38;;;5.55;;
25481;SDS011;13395;50.752;4.268;2023-03-20T08:31:31;16.75;;;6.05;;
25481;SDS011;13395;50.752;4.268;2023-03-20T08:33:57;15.25;;;5.80;;
25481;SDS011;13395;50.752;4.268;2023-03-20T08:36:23;12.02;;;4.80;;
25481;SDS011;13395;50.752;4.268;2023-03-20T08:38:49;17.02;;;5.65;;
25481;SDS011;13395;50.752;4.268;2023-03-20T08:41:15;21.02;;;6.18;;
25481;SDS011;13395;50.752;4.268;2023-03-20T08:43:41;15.45;;;5.70;;
25481;SDS011;13395;50.752;4.268;2023-03-20T08:46:07;14.32;;;5.40;;
25481;SDS011;13395;50.752;4.268;2023-03-20T08:48:33;14.98;;;6.72;;
25481;SDS011;13395;50.752;4.268;2023-03-20T08:51:00;16.95;;;6.57;;
25481;SDS011;13395;50.752;4.268;2023-03-20T08:53:26;12.55;;;4.82;;
25481;SDS011;13395;50.752;4.268;2023-03-20T08:55:51;9.23;;;4.85;;
25481;SDS011;13395;50.752;4.268;2023-03-20T08:58:18;22.13;;;6.25;;
25481;SDS011;13395;50.752;4.268;2023-03-20T09:00:45;20.00;;;5.95;;
25481;SDS011;13395;50.752;4.268;2023-03-20T09:03:15;13.82;;;6.05;;
25481;SDS011;13395;50.752;4.268;2023-03-20T09:05:43;23.00;;;6.25;;
25481;SDS011;13395;50.752;4.268;2023-03-20T09:08:12;18.63;;;5.70;;
25481;SDS011;13395;50.752;4.268;2023-03-20T09:10:38;16.67;;;5.68;;
25481;SDS011;13395;50.752;4.268;2023-03-20T09:13:05;19.55;;;5.88;;
25481;SDS011;13395;50.752;4.268;2023-03-20T09:15:31;18.42;;;6.30;;
25481;SDS011;13395;50.752;4.268;2023-03-20T09:17:58;13.35;;;6.05;;
25481;SDS011;13395;50.752;4.268;2023-03-20T09:20:23;8.70;;;5.13;;
25481;SDS011;13395;50.752;4.268;2023-03-20T09:22:49;15.15;;;6.13;;
25481;SDS011;13395;50.752;4.268;2023-03-20T09:25:14;13.18;;;5.13;;
25481;SDS011;13395;50.752;4.268;2023-03-20T09:27:40;15.10;;;5.57;;
25481;SDS011;13395;50.752;4.268;2023-03-20T09:30:06;18.85;;;5.57;;
25481;SDS011;13395;50.752;4.268;2023-03-20T09:32:33;11.77;;;5.25;;
25481;SDS011;13395;50.752;4.268;2023-03-20T09:35:00;18.65;;;4.90;;
25481;SDS011;13395;50.752;4.268;2023-03-20T09:37:26;14.95;;;5.50;;
25481;SDS011;13395;50.752;4.268;2023-03-20T09:39:52;14.52;;;4.82;;
25481;SDS011;13395;50.752;4.268;2023-03-20T09:48:10;12.02;;;4.93;;
25481;SDS011;13395;50.752;4.268;2023-03-20T09:53:39;16.33;;;5.13;;
25481;SDS011;13395;50.752;4.268;2023-03-20T09:56:13;12.90;;;4.80;;
25481;SDS011;13395;50.752;4.268;2023-03-20T09:58:45;13.93;;;4.07;;
25481;SDS011;13395;50.752;4.268;2023-03-20T10:01:17;12.75;;;4.35;;
25481;SDS011;13395;50.752;4.268;2023-03-20T10:03:52;10.77;;;4.38;;
25481;SDS011;13395;50.752;4.268;2023-03-20T10:06:21;15.30;;;4.13;;
25481;SDS011;13395;50.752;4.268;2023-03-20T10:08:47;19.77;;;5.65;;
25481;SDS011;13395;50.752;4.268;2023-03-20T10:32:53;10.73;;;2.85;;
25481;SDS011;13395;50.752;4.268;2023-03-20T10:41:21;18.00;;;2.97;;
25481;SDS011;13395;50.752;4.268;2023-03-20T10:43:53;12.00;;;3.40;;
25481;SDS011;13395;50.752;4.268;2023-03-20T10:46:29;14.93;;;2.65;;
25481;SDS011;13395;50.752;4.268;2023-03-20T10:51:36;13.77;;;2.92;;
25481;SDS011;13395;50.752;4.268;2023-03-20T10:54:06;13.05;;;2.80;;
25481;SDS011;13395;50.752;4.268;2023-03-20T10:56:45;10.85;;;2.20;;
25481;SDS011;13395;50.752;4.268;2023-03-20T11:02:10;16.58;;;2.70;;
25481;SDS011;13395;50.752;4.268;2023-03-20T11:04:38;13.63;;;2.20;;
25481;SDS011;13395;50.752;4.268;2023-03-20T11:12:32;11.57;;;3.15;;
25481;SDS011;13395;50.752;4.268;2023-03-20T11:14:59;11.88;;;2.42;;
25481;SDS011;13395;50.752;4.268;2023-03-20T11:17:28;12.43;;;3.13;;
25481;SDS011;13395;50.752;4.268;2023-03-20T11:19:54;18.23;;;3.15;;
25481;SDS011;13395;50.752;4.268;2023-03-20T11:22:28;13.73;;;4.40;;
25481;SDS011;13395;50.752;4.268;2023-03-20T11:24:56;20.58;;;4.35;;
25481;SDS011;13395;50.752;4.268;2023-03-20T11:27:29;11.15;;;3.30;;
25481;SDS011;13395;50.752;4.268;2023-03-20T11:29:57;10.48;;;3.63;;
25481;SDS011;13395;50.752;4.268;2023-03-20T11:32:39;10.68;;;3.50;;
25481;SDS011;13395;50.752;4.268;2023-03-20T11:37:51;14.82;;;3.63;;
25481;SDS011;13395;50.752;4.268;2023-03-20T11:40:25;9.75;;;3.65;;
25481;SDS011;13395;50.752;4.268;2023-03-20T11:42:57;10.75;;;4.05;;
25481;SDS011;13395;50.752;4.268;2023-03-20T11:45:33;14.10;;;4.05;;
25481;SDS011;13395;50.752;4.268;2023-03-20T11:48:00;12.70;;;3.95;;
25481;SDS011;13395;50.752;4.268;2023-03-20T11:50:35;7.85;;;2.90;;
25481;SDS011;13395;50.752;4.268;2023-03-20T11:58:33;11.13;;;3.15;;
25481;SDS011;13395;50.752;4.268;2023-03-20T12:01:01;11.90;;;3.78;;
25481;SDS011;13395;50.752;4.268;2023-03-20T12:03:45;12.10;;;3.75;;
25481;SDS011;13395;50.752;4.268;2023-03-20T12:06:18;12.77;;;3.72;;
25481;SDS011;13395;50.752;4.268;2023-03-20T12:08:47;23.00;;;4.32;;
25481;SDS011;13395;50.752;4.268;2023-03-20T12:14:05;12.27;;;4.43;;
25481;SDS011;13395;50.752;4.268;2023-03-20T12:16:39;10.35;;;4.00;;
25481;SDS011;13395;50.752;4.268;2023-03-20T12:19:11;16.38;;;4.03;;
25481;SDS011;13395;50.752;4.268;2023-03-20T12:21:43;12.63;;;3.75;;
25481;SDS011;13395;50.752;4.268;2023-03-20T12:24:55;18.25;;;5.22;;
25481;SDS011;13395;50.752;4.268;2023-03-20T12:27:42;12.70;;;4.05;;
25481;SDS011;13395;50.752;4.268;2023-03-20T12:30:19;15.90;;;4.35;;
25481;SDS011;13395;50.752;4.268;2023-03-20T12:32:59;15.10;;;5.32;;
25481;SDS011;13395;50.752;4.268;2023-03-20T12:35:35;11.32;;;3.90;;
25481;SDS011;13395;50.752;4.268;2023-03-20T12:38:26;14.43;;;5.00;;
25481;SDS011;13395;50.752;4.268;2023-03-20T12:40:57;11.50;;;4.43;;
25481;SDS011;13395;50.752;4.268;2023-03-20T12:46:36;11.27;;;4.38;;
25481;SDS011;13395;50.752;4.268;2023-03-20T12:49:33;14.13;;;4.50;;
25481;SDS011;13395;50.752;4.268;2023-03-20T12:52:21;11.90;;;4.20;;
25481;SDS011;13395;50.752;4.268;2023-03-20T12:57:36;13.88;;;4.07;;
25481;SDS011;13395;50.752;4.268;2023-03-20T13:21:54;18.20;;;5.32;;
25481;SDS011;13395;50.752;4.268;2023-03-20T13:27:13;19.75;;;4.82;;
25481;SDS011;13395;50.752;4.268;2023-03-20T13:30:23;18.73;;;5.60;;
25481;SDS011;13395;50.752;4.268;2023-03-20T13:38:34;16.13;;;5.68;;
25481;SDS011;13395;50.752;4.268;2023-03-20T13:41:06;14.52;;;5.10;;
25481;SDS011;13395;50.752;4.268;2023-03-20T13:43:55;14.30;;;4.95;;
25481;SDS011;13395;50.752;4.268;2023-03-20T13:46:26;15.57;;;5.32;;
25481;SDS011;13395;50.752;4.268;2023-03-20T13:49:00;13.35;;;6.03;;
25481;SDS011;13395;50.752;4.268;2023-03-20T13:56:50;15.88;;;6.15;;
25481;SDS011;13395;50.752;4.268;2023-03-20T14:02:22;14.18;;;6.43;;
25481;SDS011;13395;50.752;4.268;2023-03-20T14:05:02;17.75;;;5.88;;
25481;SDS011;13395;50.752;4.268;2023-03-20T14:07:35;16.40;;;6.28;;
25481;SDS011;13395;50.752;4.268;2023-03-20T14:12:57;22.80;;;7.10;;
25481;SDS011;13395;50.752;4.268;2023-03-20T14:15:32;24.50;;;6.13;;
25481;SDS011;13395;50.752;4.268;2023-03-20T14:18:04;18.63;;;5.88;;
25481;SDS011;13395;50.752;4.268;2023-03-20T14:20:36;19.95;;;5.35;;
25481;SDS011;13395;50.752;4.268;2023-03-20T14:23:03;15.27;;;6.07;;
25481;SDS011;13395;50.752;4.268;2023-03-20T14:25:35;15.20;;;6.90;;
25481;SDS011;13395;50.752;4.268;2023-03-20T14:30:41;15.80;;;5.45;;
25481;SDS011;13395;50.752;4.268;2023-03-20T14:38:34;14.38;;;5.25;;
25481;SDS011;13395;50.752;4.268;2023-03-20T14:48:56;20.50;;;6.20;;
25481;SDS011;13395;50.752;4.268;2023-03-20T14:51:45;21.67;;;6.75;;
25481;SDS011;13395;50.752;4.268;2023-03-20T14:56:47;24.15;;;6.13;;
25481;SDS011;13395;50.752;4.268;2023-03-20T14:59:17;13.93;;;6.20;;
25481;SDS011;13395;50.752;4.268;2023-03-20T15:07:26;17.83;;;7.35;;
25481;SDS011;13395;50.752;4.268;2023-03-20T15:09:55;23.33;;;7.95;;
25481;SDS011;13395;50.752;4.268;2023-03-20T15:12:25;12.40;;;6.88;;
25481;SDS011;13395;50.752;4.268;2023-03-20T15:14:57;17.85;;;6.95;;
25481;SDS011;13395;50.752;4.268;2023-03-20T15:17:36;13.30;;;6.82;;
25481;SDS011;13395;50.752;4.268;2023-03-20T15:20:18;33.22;;;7.72;;
25481;SDS011;13395;50.752;4.268;2023-03-20T15:22:50;17.80;;;7.03;;
25481;SDS011;13395;50.752;4.268;2023-03-20T15:25:19;24.30;;;6.45;;
25481;SDS011;13395;50.752;4.268;2023-03-20T15:27:46;23.45;;;7.13;;
25481;SDS011;13395;50.752;4.268;2023-03-20T15:30:14;21.02;;;7.25;;
25481;SDS011;13395;50.752;4.268;2023-03-20T15:32:42;21.88;;;7.00;;
25481;SDS011;13395;50.752;4.268;2023-03-20T15:35:10;17.40;;;6.65;;
25481;SDS011;13395;50.752;4.268;2023-03-20T15:37:38;20.75;;;7.30;;
25481;SDS011;13395;50.752;4.268;2023-03-20T15:40:12;19.25;;;7.07;;
25481;SDS011;13395;50.752;4.268;2023-03-20T15:45:35;20.60;;;6.97;;
25481;SDS011;13395;50.752;4.268;2023-03-20T15:48:05;24.27;;;6.93;;
25481;SDS011;13395;50.752;4.268;2023-03-20T15:50:36;15.90;;;5.90;;
25481;SDS011;13395;50.752;4.268;2023-03-20T15:53:06;15.57;;;6.60;;
25481;SDS011;13395;50.752;4.268;2023-03-20T15:55:36;14.93;;;6.28;;
25481;SDS011;13395;50.752;4.268;2023-03-20T15:58:02;15.40;;;6.85;;
25481;SDS011;13395;50.752;4.268;2023-03-20T16:00:30;10.55;;;5.20;;
25481;SDS011;13395;50.752;4.268;2023-03-20T16:03:04;13.93;;;6.53;;
25481;SDS011;13395;50.752;4.268;2023-03-20T16:05:33;25.23;;;7.30;;
25481;SDS011;13395;50.752;4.268;2023-03-20T16:08:13;20.35;;;6.75;;
25481;SDS011;13395;50.752;4.268;2023-03-20T16:10:46;18.00;;;6.20;;
25481;SDS011;13395;50.752;4.268;2023-03-20T16:13:12;20.33;;;7.18;;
25481;SDS011;13395;50.752;4.268;2023-03-20T16:15:42;14.75;;;5.78;;
25481;SDS011;13395;50.752;4.268;2023-03-20T16:18:09;19.48;;;6.43;;
25481;SDS011;13395;50.752;4.268;2023-03-20T16:20:39;22.17;;;7.07;;
25481;SDS011;13395;50.752;4.268;2023-03-20T16:23:13;18.35;;;6.75;;
25481;SDS011;13395;50.752;4.268;2023-03-20T16:26:07;15.68;;;7.00;;
25481;SDS011;13395;50.752;4.268;2023-03-20T16:28:36;26.10;;;6.78;;
25481;SDS011;13395;50.752;4.268;2023-03-20T16:31:06;21.85;;;6.68;;
25481;SDS011;13395;50.752;4.268;2023-03-20T16:33:43;24.67;;;7.35;;
25481;SDS011;13395;50.752;4.268;2023-03-20T16:36:16;26.10;;;7.25;;
25481;SDS011;13395;50.752;4.268;2023-03-20T16:39:47;22.38;;;7.30;;
25481;SDS011;13395;50.752;4.268;2023-03-20T16:41:43;18.80;;;7.22;;
25481;SDS011;13395;50.752;4.268;2023-03-20T16:44:14;21.58;;;6.90;;
25481;SDS011;13395;50.752;4.268;2023-03-20T16:52:24;15.18;;;6.53;;
25481;SDS011;13395;50.752;4.268;2023-03-20T16:54:55;20.85;;;6.85;;
25481;SDS011;13395;50.752;4.268;2023-03-20T16:57:21;23.35;;;7.65;;
25481;SDS011;13395;50.752;4.268;2023-03-20T16:59:47;18.77;;;6.25;;
25481;SDS011;13395;50.752;4.268;2023-03-20T17:04:56;12.95;;;5.72;;
25481;SDS011;13395;50.752;4.268;2023-03-20T17:07:26;14.13;;;6.18;;
25481;SDS011;13395;50.752;4.268;2023-03-20T17:12:39;23.10;;;6.40;;
25481;SDS011;13395;50.752;4.268;2023-03-20T17:15:06;20.63;;;6.38;;
25481;SDS011;13395;50.752;4.268;2023-03-20T17:17:32;16.92;;;5.85;;
25481;SDS011;13395;50.752;4.268;2023-03-20T17:19:58;18.67;;;6.45;;
25481;SDS011;13395;50.752;4.268;2023-03-20T17:22:25;14.38;;;5.30;;
25481;SDS011;13395;50.752;4.268;2023-03-20T17:24:53;16.42;;;6.43;;
25481;SDS011;13395;50.752;4.268;2023-03-20T17:27:19;14.00;;;6.20;;
25481;SDS011;13395;50.752;4.268;2023-03-20T17:29:45;18.80;;;5.90;;
25481;SDS011;13395;50.752;4.268;2023-03-20T17:32:14;19.80;;;5.97;;
25481;SDS011;13395;50.752;4.268;2023-03-20T17:34:42;17.95;;;6.35;;
25481;SDS011;13395;50.752;4.268;2023-03-20T17:37:10;15.55;;;6.05;;
25481;SDS011;13395;50.752;4.268;2023-03-20T17:39:38;17.85;;;6.60;;
25481;SDS011;13395;50.752;4.268;2023-03-20T17:42:08;19.85;;;6.05;;
25481;SDS011;13395;50.752;4.268;2023-03-20T17:44:45;22.05;;;7.55;;
25481;SDS011;13395;50.752;4.268;2023-03-20T17:47:19;17.00;;;6.20;;
25481;SDS011;13395;50.752;4.268;2023-03-20T17:49:47;18.92;;;6.00;;
25481;SDS011;13395;50.752;4.268;2023-03-20T17:52:14;19.15;;;6.55;;
25481;SDS011;13395;50.752;4.268;2023-03-20T17:54:42;12.25;;;6.35;;
25481;SDS011;13395;50.752;4.268;2023-03-20T17:59:56;23.77;;;7.00;;
25481;SDS011;13395;50.752;4.268;2023-03-20T18:02:22;19.20;;;6.38;;
25481;SDS011;13395;50.752;4.268;2023-03-20T18:04:48;20.98;;;7.60;;
25481;SDS011;13395;50.752;4.268;2023-03-20T18:07:15;20.27;;;7.47;;
25481;SDS011;13395;50.752;4.268;2023-03-20T18:09:41;19.52;;;8.75;;
25481;SDS011;13395;50.752;4.268;2023-03-20T18:12:11;20.92;;;7.40;;
25481;SDS011;13395;50.752;4.268;2023-03-20T18:14:38;20.80;;;8.00;;
25481;SDS011;13395;50.752;4.268;2023-03-20T18:17:04;26.77;;;9.23;;
25481;SDS011;13395;50.752;4.268;2023-03-20T18:19:30;19.20;;;8.30;;
25481;SDS011;13395;50.752;4.268;2023-03-20T18:21:57;22.30;;;7.05;;
25481;SDS011;13395;50.752;4.268;2023-03-20T18:24:23;15.73;;;8.35;;
25481;SDS011;13395;50.752;4.268;2023-03-20T18:26:50;19.60;;;7.57;;
25481;SDS011;13395;50.752;4.268;2023-03-20T18:29:16;18.60;;;8.65;;
25481;SDS011;13395;50.752;4.268;2023-03-20T18:31:42;21.70;;;7.35;;
25481;SDS011;13395;50.752;4.268;2023-03-20T18:34:08;18.45;;;8.35;;
25481;SDS011;13395;50.752;4.268;2023-03-20T18:36:34;16.13;;;7.57;;
25481;SDS011;13395;50.752;4.268;2023-03-20T18:39:00;18.48;;;8.13;;
25481;SDS011;13395;50.752;4.268;2023-03-20T18:41:26;21.10;;;8.00;;
25481;SDS011;13395;50.752;4.268;2023-03-20T18:43:52;18.23;;;8.18;;
25481;SDS011;13395;50.752;4.268;2023-03-20T18:46:20;22.70;;;8.40;;
25481;SDS011;13395;50.752;4.268;2023-03-20T18:48:47;18.42;;;7.82;;
25481;SDS011;13395;50.752;4.268;2023-03-20T18:51:15;18.63;;;7.80;;
25481;SDS011;13395;50.752;4.268;2023-03-20T18:53:41;20.90;;;8.30;;
25481;SDS011;13395;50.752;4.268;2023-03-20T18:58:43;17.58;;;7.65;;
25481;SDS011;13395;50.752;4.268;2023-03-20T19:01:10;20.17;;;8.32;;
25481;SDS011;13395;50.752;4.268;2023-03-20T19:03:37;20.52;;;7.57;;
25481;SDS011;13395;50.752;4.268;2023-03-20T19:06:05;25.13;;;8.95;;
25481;SDS011;13395;50.752;4.268;2023-03-20T19:08:35;18.45;;;8.70;;
25481;SDS011;13395;50.752;4.268;2023-03-20T19:11:03;23.50;;;8.80;;
25481;SDS011;13395;50.752;4.268;2023-03-20T19:13:29;20.98;;;8.90;;
25481;SDS011;13395;50.752;4.268;2023-03-20T19:15:55;16.15;;;8.38;;
25481;SDS011;13395;50.752;4.268;2023-03-20T19:18:21;16.02;;;7.28;;
25481;SDS011;13395;50.752;4.268;2023-03-20T19:20:52;14.57;;;7.38;;
25481;SDS011;13395;50.752;4.268;2023-03-20T19:23:22;17.65;;;7.25;;